createdAt,value
2019-04-05T00:02:26.869Z,79.46
2019-04-05T00:04:54.106Z,79.40
2019-04-05T00:07:20.957Z,79.70
2019-04-05T00:09:47.813Z,79.50
2019-04-05T00:12:15.592Z,79.26
2019-04-05T00:14:45.111Z,79.64
2019-04-05T00:17:11.889Z,79.71
2019-04-05T00:19:38.829Z,79.47
2019-04-05T00:22:05.666Z,79.23
2019-04-05T00:24:32.552Z,79.04
2019-04-05T00:26:59.630Z,79.03
2019-04-05T00:29:26.630Z,79.16
2019-04-05T00:31:53.795Z,78.54
2019-04-05T00:34:20.931Z,78.37
2019-04-05T00:36:48.389Z,78.39
2019-04-05T00:39:15.659Z,78.49
2019-04-05T00:41:42.569Z,78.18
2019-04-05T00:44:09.333Z,77.17
2019-04-05T00:46:36.500Z,77.15
2019-04-05T00:49:03.566Z,77.68
2019-04-05T00:51:30.769Z,77.51
2019-04-05T00:53:57.702Z,77.05
2019-04-05T00:56:24.903Z,76.67
2019-04-05T00:58:52.384Z,76.56
2019-04-05T01:01:19.364Z,76.40
2019-04-05T01:03:46.432Z,76.73
2019-04-05T01:06:13.999Z,76.62
2019-04-05T01:08:41.268Z,76.28
2019-04-05T01:11:08.474Z,76.12
2019-04-05T01:13:37.534Z,77.52
2019-04-05T01:16:04.650Z,78.29
2019-04-05T01:18:32.061Z,78.84
2019-04-05T01:21:02.503Z,78.68
2019-04-05T01:23:30.012Z,78.28
2019-04-05T01:26:04.186Z,77.74
2019-04-05T01:28:31.526Z,77.74
2019-04-05T01:30:58.719Z,77.50
2019-04-05T01:33:26.292Z,76.82
2019-04-05T01:35:53.711Z,76.58
2019-04-05T01:38:21.000Z,76.66
2019-04-05T01:40:48.314Z,76.80
2019-04-05T01:43:16.110Z,76.52
2019-04-05T01:45:53.446Z,75.98
2019-04-05T01:48:14.422Z,75.97
2019-04-05T01:50:41.412Z,75.76
2019-04-05T01:53:08.506Z,75.95
2019-04-05T01:55:35.727Z,76.14
2019-04-05T01:58:03.881Z,77.03
2019-04-05T02:00:32.456Z,77.51
2019-04-05T02:02:59.496Z,77.86
2019-04-05T02:05:26.598Z,78.59
2019-04-05T02:07:54.241Z,78.97
2019-04-05T02:10:22.198Z,79.07
2019-04-05T02:12:49.052Z,78.78
2019-04-05T02:15:27.837Z,78.72
2019-04-05T02:17:56.683Z,78.78
2019-04-05T02:20:24.155Z,78.72
2019-04-05T02:22:51.762Z,78.76
2019-04-05T02:25:19.418Z,78.49
2019-04-05T02:27:46.623Z,78.16
2019-04-05T02:30:14.263Z,78.09
2019-04-05T02:32:43.567Z,77.63
2019-04-05T02:35:11.174Z,77.57
2019-04-05T02:37:38.615Z,77.09
2019-04-05T02:40:13.970Z,77.00
2019-04-05T02:42:46.190Z,77.56
2019-04-05T02:45:17.495Z,77.69
2019-04-05T02:47:56.578Z,78.02
2019-04-05T02:50:29.247Z,78.48
2019-04-05T02:53:01.882Z,78.07
2019-04-05T02:55:30.376Z,77.90
2019-04-05T02:58:00.812Z,77.61
2019-04-05T03:00:31.625Z,77.35
2019-04-05T03:03:00.319Z,77.50
2019-04-05T03:05:28.069Z,77.92
2019-04-05T03:07:56.463Z,78.25
2019-04-05T03:10:57.690Z,78.59
2019-04-05T03:13:30.103Z,78.37
2019-04-05T03:16:06.088Z,78.37
2019-04-05T03:18:38.655Z,78.10
2019-04-05T03:21:08.383Z,78.19
2019-04-05T03:23:41.052Z,78.06
2019-04-05T03:26:13.697Z,77.82
2019-04-05T03:28:46.250Z,77.65
2019-04-05T03:31:23.483Z,78.10
2019-04-05T03:33:46.383Z,78.21
2019-04-05T03:36:13.774Z,78.24
2019-04-05T03:38:41.789Z,77.81
2019-04-05T03:41:10.370Z,77.98
2019-04-05T03:43:38.399Z,78.28
2019-04-05T03:46:09.042Z,78.46
2019-04-05T03:48:36.698Z,78.76
2019-04-05T03:51:04.678Z,78.93
2019-04-05T03:53:31.900Z,79.52
2019-04-05T03:56:00.471Z,79.91
2019-04-05T03:58:27.836Z,80.07
2019-04-05T04:00:55.002Z,79.92
2019-04-05T04:03:23.299Z,79.63
2019-04-05T04:05:52.204Z,79.30
2019-04-05T04:08:23.155Z,79.36
2019-04-05T04:10:51.176Z,79.15
2019-04-05T04:13:18.639Z,79.26
2019-04-05T04:15:45.942Z,79.27
2019-04-05T04:18:15.737Z,79.09
2019-04-05T04:20:54.324Z,79.01
2019-04-05T04:23:27.204Z,79.07
2019-04-05T04:25:54.674Z,78.71
2019-04-05T04:28:21.778Z,79.10
2019-04-05T04:30:49.157Z,78.37
2019-04-05T04:33:17.323Z,78.17
2019-04-05T04:35:44.899Z,78.40
2019-04-05T04:38:14.840Z,78.56
2019-04-05T04:40:42.155Z,78.85
2019-04-05T04:43:09.547Z,78.77
2019-04-05T04:45:39.613Z,78.49
2019-04-05T04:48:07.794Z,78.39
2019-04-05T04:50:35.605Z,78.18
2019-04-05T04:53:03.070Z,78.27
2019-04-05T04:55:30.124Z,78.22
2019-04-05T04:57:57.769Z,78.07
2019-04-05T05:00:25.740Z,78.75
2019-04-05T05:02:54.002Z,79.00
2019-04-05T05:05:23.701Z,79.08
2019-04-05T05:07:50.861Z,79.25
2019-04-05T05:10:20.061Z,80.16
2019-04-05T05:12:47.133Z,79.91
2019-04-05T05:15:14.988Z,79.76
2019-04-05T05:17:42.155Z,79.48
2019-04-05T05:20:10.963Z,78.77
2019-04-05T05:22:38.158Z,78.43
2019-04-05T05:25:05.997Z,78.46
2019-04-05T05:27:33.308Z,78.93
2019-04-05T05:30:02.270Z,79.02
2019-04-05T05:32:29.690Z,79.10
2019-04-05T05:35:02.241Z,79.26
2019-04-05T05:37:25.878Z,79.65
2019-04-05T05:39:54.093Z,79.40
2019-04-05T05:42:32.181Z,78.88
2019-04-05T05:44:59.333Z,78.64
2019-04-05T05:47:26.515Z,78.76
2019-04-05T05:49:53.262Z,78.54
2019-04-05T05:52:21.150Z,79.00
2019-04-05T05:54:48.125Z,79.56
2019-04-05T05:57:15.380Z,79.55
2019-04-05T05:59:42.426Z,79.66
2019-04-05T06:02:09.472Z,79.19
2019-04-05T06:04:36.659Z,78.69
2019-04-05T06:07:04.721Z,78.97
2019-04-05T06:09:31.541Z,78.95
2019-04-05T06:11:58.444Z,79.14
2019-04-05T06:14:27.617Z,78.41
2019-04-05T06:16:54.971Z,78.00
2019-04-05T06:19:22.251Z,78.00
2019-04-05T06:21:49.225Z,77.62
2019-04-05T06:24:16.174Z,77.41
2019-04-05T06:26:42.979Z,77.10
2019-04-05T06:29:09.988Z,77.10
2019-04-05T06:31:37.131Z,76.94
2019-04-05T06:34:04.507Z,76.86
2019-04-05T06:36:32.032Z,76.90
2019-04-05T06:38:59.137Z,77.25
2019-04-05T06:41:25.904Z,77.35
2019-04-05T06:43:53.067Z,77.22
2019-04-05T06:46:19.980Z,76.97
2019-04-05T06:48:46.821Z,76.68
2019-04-05T06:51:14.425Z,77.44
2019-04-05T06:53:41.773Z,77.50
2019-04-05T06:56:08.769Z,77.51
2019-04-05T06:58:35.563Z,77.46
2019-04-05T07:01:02.924Z,77.44
2019-04-05T07:03:30.099Z,77.51
2019-04-05T07:05:57.380Z,77.14
2019-04-05T07:08:25.439Z,77.22
2019-04-05T07:10:52.268Z,77.29
2019-04-05T07:13:19.263Z,77.20
2019-04-05T07:15:46.705Z,77.18
2019-04-05T07:18:13.809Z,77.00
2019-04-05T07:20:40.709Z,76.57
2019-04-05T07:23:07.929Z,76.45
2019-04-05T07:25:34.703Z,75.77
2019-04-05T07:28:03.897Z,75.39
2019-04-05T07:30:32.595Z,74.92
2019-04-05T07:33:03.414Z,74.76
2019-04-05T07:35:33.726Z,74.62
2019-04-05T07:37:59.728Z,74.39
2019-04-05T07:40:26.712Z,74.27
2019-04-05T07:42:53.490Z,74.23
2019-04-05T07:45:20.536Z,73.77
2019-04-05T07:47:47.449Z,73.32
2019-04-05T07:50:17.738Z,73.07
2019-04-05T07:52:44.980Z,73.05
2019-04-05T07:55:12.168Z,73.03
2019-04-05T07:57:39.321Z,72.94
2019-04-05T08:00:22.820Z,72.58
2019-04-05T08:02:50.311Z,72.46
2019-04-05T08:05:17.361Z,72.04
2019-04-05T08:07:49.352Z,72.08
2019-04-05T08:10:17.585Z,72.06
2019-04-05T08:12:48.139Z,71.79
2019-04-05T08:15:19.021Z,71.87
2019-04-05T08:17:49.406Z,71.57
2019-04-05T08:20:17.541Z,71.17
2019-04-05T08:22:44.622Z,71.04
2019-04-05T08:25:12.206Z,70.74
2019-04-05T08:27:41.019Z,70.95
2019-04-05T08:30:08.705Z,71.04
2019-04-05T08:32:38.162Z,70.72
2019-04-05T08:35:09.364Z,70.51
2019-04-05T08:37:36.534Z,70.09
2019-04-05T08:40:05.807Z,69.86
2019-04-05T08:42:35.766Z,70.06
2019-04-05T08:45:06.001Z,69.84
2019-04-05T08:47:33.454Z,69.34
2019-04-05T08:50:00.435Z,68.88
2019-04-05T08:52:28.226Z,68.59
2019-04-05T08:54:55.454Z,68.79
2019-04-05T08:57:22.586Z,68.61
2019-04-05T08:59:53.222Z,68.32
2019-04-05T09:02:19.300Z,68.12
2019-04-05T09:04:49.090Z,67.95
2019-04-05T09:07:16.299Z,68.12
2019-04-05T09:09:49.413Z,68.40
2019-04-05T09:12:17.344Z,67.92
2019-04-05T09:15:01.420Z,68.34
2019-04-05T09:17:36.897Z,68.21
2019-04-05T09:20:05.850Z,68.64
2019-04-05T09:22:33.704Z,68.52
2019-04-05T09:25:06.114Z,68.28
2019-04-05T09:27:35.319Z,68.29
2019-04-05T09:30:06.533Z,67.86
2019-04-05T09:32:36.282Z,67.55
2019-04-05T09:35:04.885Z,67.44
2019-04-05T09:37:32.941Z,67.20
2019-04-05T09:40:00.386Z,67.33
2019-04-05T09:42:27.640Z,67.30
2019-04-05T09:44:55.181Z,66.90
2019-04-05T09:47:22.253Z,66.61
2019-04-05T09:49:49.441Z,66.29
2019-04-05T09:52:16.614Z,66.29
2019-04-05T09:54:44.228Z,66.13
2019-04-05T09:57:11.402Z,66.18
2019-04-05T09:59:38.392Z,65.95
2019-04-05T10:02:05.601Z,65.45
2019-04-05T10:04:33.645Z,65.46
2019-04-05T10:07:00.415Z,65.66
2019-04-05T10:09:30.204Z,65.41
2019-04-05T10:11:57.537Z,64.97
2019-04-05T10:14:25.109Z,64.57
2019-04-05T10:16:52.719Z,64.11
2019-04-05T10:19:23.084Z,64.08
2019-04-05T10:21:49.983Z,63.68
2019-04-05T10:24:16.765Z,63.47
2019-04-05T10:26:46.485Z,63.34
2019-04-05T10:29:13.284Z,63.82
2019-04-05T10:31:40.391Z,63.83
2019-04-05T10:34:07.448Z,64.19
2019-04-05T10:36:34.249Z,64.29
2019-04-05T10:39:07.376Z,64.02
2019-04-05T10:41:34.564Z,63.85
2019-04-05T10:44:01.473Z,63.64
2019-04-05T10:46:28.557Z,63.24
2019-04-05T10:49:01.610Z,63.67
2019-04-05T10:51:51.863Z,63.96
2019-04-05T10:54:29.314Z,64.10
2019-04-05T10:56:57.255Z,64.46
2019-04-05T10:59:24.364Z,64.27
2019-04-05T11:01:51.548Z,64.54
2019-04-05T11:04:18.665Z,64.53
2019-04-05T11:06:45.945Z,64.21
2019-04-05T11:09:13.145Z,64.03
2019-04-05T11:11:40.444Z,64.05
2019-04-05T11:14:13.721Z,63.93
2019-04-05T11:16:36.520Z,64.00
2019-04-05T11:19:03.444Z,64.02
2019-04-05T11:21:30.215Z,64.00
2019-04-05T11:23:57.493Z,63.87
2019-04-05T11:26:24.738Z,63.90
2019-04-05T11:28:56.180Z,63.69
2019-04-05T11:31:25.703Z,63.83
2019-04-05T11:33:53.318Z,64.02
2019-04-05T11:36:23.281Z,64.14
2019-04-05T11:38:52.192Z,64.25
2019-04-05T11:41:27.412Z,64.74
2019-04-05T11:44:01.725Z,65.00
2019-04-05T11:46:29.387Z,65.03
2019-04-05T11:48:57.711Z,65.00
2019-04-05T11:51:24.936Z,65.04
2019-04-05T11:53:55.168Z,64.86
2019-04-05T11:56:24.193Z,64.83
2019-04-05T11:58:53.210Z,64.98
2019-04-05T12:01:26.081Z,65.23
2019-04-05T12:03:53.279Z,65.45
2019-04-05T12:06:23.860Z,65.41
2019-04-05T12:08:51.240Z,65.29
2019-04-05T12:11:18.137Z,65.15
2019-04-05T12:13:47.680Z,65.04
2019-04-05T12:16:17.680Z,65.05
2019-04-05T12:18:45.148Z,65.02
2019-04-05T12:21:12.501Z,65.13
2019-04-05T12:23:39.546Z,65.33
2019-04-05T12:26:06.429Z,65.39
2019-04-05T12:28:33.792Z,65.49
2019-04-05T12:31:01.033Z,65.41
2019-04-05T12:33:28.384Z,65.32
2019-04-05T12:35:56.872Z,65.01
2019-04-05T12:38:31.478Z,64.89
2019-04-05T12:41:02.355Z,64.69
2019-04-05T12:43:31.904Z,64.67
2019-04-05T12:45:59.582Z,64.69
2019-04-05T12:48:26.867Z,64.76
2019-04-05T12:51:01.130Z,64.63
2019-04-05T12:53:24.650Z,64.36
2019-04-05T12:55:56.279Z,64.37
2019-04-05T12:58:25.484Z,64.46
2019-04-05T13:00:51.314Z,64.45
2019-04-05T13:03:20.855Z,64.46
2019-04-05T13:05:51.331Z,64.46
2019-04-05T13:08:20.730Z,64.35
2019-04-05T13:10:48.042Z,64.38
2019-04-05T13:13:17.735Z,64.31
2019-04-05T13:15:45.063Z,64.11
2019-04-05T13:18:12.492Z,64.05
2019-04-05T13:20:42.160Z,64.11
2019-04-05T13:23:08.933Z,63.95
2019-04-05T13:25:36.364Z,63.85
2019-04-05T13:28:13.299Z,64.08
2019-04-05T13:30:35.186Z,63.78
2019-04-05T13:33:02.352Z,63.59
2019-04-05T13:35:29.715Z,63.55
2019-04-05T13:37:58.518Z,63.68
2019-04-05T13:40:27.402Z,63.55
2019-04-05T13:42:55.441Z,63.42
2019-04-05T13:45:23.170Z,63.36
2019-04-05T13:47:50.360Z,63.41
2019-04-05T13:50:19.645Z,63.69
2019-04-05T13:52:47.243Z,63.63
2019-04-05T13:55:14.571Z,63.72
2019-04-05T13:57:41.798Z,63.77
2019-04-05T14:00:11.327Z,63.76
2019-04-05T14:02:38.575Z,63.97
2019-04-05T14:05:06.818Z,63.96
2019-04-05T14:07:34.405Z,64.13
2019-04-05T14:10:10.502Z,64.17
2019-04-05T14:12:41.063Z,64.18
2019-04-05T14:15:10.700Z,64.10
2019-04-05T14:17:38.853Z,64.17
2019-04-05T14:20:09.083Z,64.12
2019-04-05T14:22:38.103Z,64.34
2019-04-05T14:25:10.225Z,64.30
2019-04-05T14:27:37.104Z,64.26
2019-04-05T14:30:08.251Z,64.41
2019-04-05T14:32:35.564Z,64.91
2019-04-05T14:35:07.953Z,64.92
2019-04-05T14:37:35.904Z,64.65
2019-04-05T14:40:06.715Z,64.47
2019-04-05T14:42:34.694Z,64.18
2019-04-05T14:45:04.598Z,64.05
2019-04-05T14:47:32.102Z,64.06
2019-04-05T14:50:00.962Z,64.18
2019-04-05T14:52:31.852Z,64.47
2019-04-05T14:55:00.059Z,64.50
2019-04-05T14:57:28.486Z,64.57
2019-04-05T14:59:55.368Z,64.64
2019-04-05T15:02:26.326Z,64.60
2019-04-05T15:04:53.921Z,64.47
2019-04-05T15:07:21.511Z,64.66
2019-04-05T15:09:48.824Z,64.57
2019-04-05T15:12:16.352Z,64.42
2019-04-05T15:14:44.016Z,64.32
2019-04-05T15:17:11.616Z,64.39
2019-04-05T15:19:39.421Z,64.45
2019-04-05T15:22:10.897Z,64.44
2019-04-05T15:24:38.378Z,64.53
2019-04-05T15:27:06.040Z,64.44
2019-04-05T15:29:33.385Z,64.56
2019-04-05T15:32:01.330Z,64.83
2019-04-05T15:34:29.290Z,64.93
2019-04-05T15:36:57.098Z,65.02
2019-04-05T15:39:26.192Z,65.05
2019-04-05T15:41:55.442Z,65.09
2019-04-05T15:44:23.704Z,65.36
2019-04-05T15:46:53.116Z,65.56
2019-04-05T15:49:22.711Z,65.50
2019-04-05T15:51:49.832Z,65.57
2019-04-05T15:54:17.627Z,65.78
2019-04-05T15:56:45.578Z,65.84
2019-04-05T15:59:13.625Z,65.69
2019-04-05T16:01:43.468Z,65.70
2019-04-05T16:04:13.908Z,65.90
2019-04-05T16:06:41.193Z,66.15
2019-04-05T16:09:10.722Z,66.28
2019-04-05T16:11:40.850Z,66.37
2019-04-05T16:14:08.803Z,66.34
2019-04-05T16:16:36.287Z,66.30
2019-04-05T16:19:03.393Z,66.11
2019-04-05T16:21:31.088Z,66.10
2019-04-05T16:23:57.849Z,66.13
2019-04-05T16:26:25.608Z,66.28
2019-04-05T16:28:53.545Z,66.41
2019-04-05T16:31:20.479Z,66.71
2019-04-05T16:33:48.012Z,67.07
2019-04-05T16:36:15.511Z,67.05
2019-04-05T16:38:43.154Z,67.00
2019-04-05T16:41:16.779Z,67.05
2019-04-05T16:43:49.464Z,67.19
2019-04-05T16:46:16.989Z,66.91
2019-04-05T16:48:43.736Z,67.24
2019-04-05T16:51:13.138Z,67.34
2019-04-05T16:53:42.257Z,67.47
2019-04-05T16:56:09.314Z,67.42
2019-04-05T16:58:38.130Z,67.38
2019-04-05T17:01:05.100Z,67.40
2019-04-05T17:03:32.465Z,67.46
2019-04-05T17:05:59.711Z,67.40
2019-04-05T17:08:30.153Z,67.39
2019-04-05T17:10:57.182Z,67.44
2019-04-05T17:13:24.459Z,67.34
2019-04-05T17:15:52.359Z,67.51
2019-04-05T17:18:19.650Z,67.51
2019-04-05T17:20:46.554Z,67.36
2019-04-05T17:23:14.060Z,67.14
2019-04-05T17:25:40.996Z,67.44
2019-04-05T17:28:07.947Z,67.58
2019-04-05T17:30:40.513Z,67.77
2019-04-05T17:33:08.551Z,67.86
2019-04-05T17:35:36.083Z,67.73
2019-04-05T17:38:04.105Z,67.56
2019-04-05T17:40:31.807Z,67.55
2019-04-05T17:42:59.699Z,67.79
2019-04-05T17:45:26.975Z,67.88
2019-04-05T17:47:54.080Z,67.96
2019-04-05T17:50:30.751Z,67.92
2019-04-05T17:53:10.853Z,67.91
2019-04-05T17:55:27.170Z,68.00
2019-04-05T17:57:56.200Z,68.20
2019-04-05T18:00:29.920Z,68.06
2019-04-05T18:02:57.083Z,68.09
2019-04-05T18:05:26.814Z,68.18
2019-04-05T18:07:54.383Z,68.36
2019-04-05T18:10:22.554Z,68.46
2019-04-05T18:12:49.427Z,68.48
2019-04-05T18:15:16.876Z,68.57
2019-04-05T18:17:44.145Z,68.62
2019-04-05T18:20:11.423Z,68.91
2019-04-05T18:22:38.402Z,69.11
2019-04-05T18:25:06.412Z,69.15
2019-04-05T18:27:33.757Z,69.46
2019-04-05T18:30:00.566Z,69.51
2019-04-05T18:32:31.036Z,69.52
2019-04-05T18:34:57.077Z,69.57
2019-04-05T18:37:23.948Z,69.46
2019-04-05T18:39:52.301Z,69.22
2019-04-05T18:42:20.138Z,69.17
2019-04-05T18:44:47.061Z,69.11
2019-04-05T18:47:14.027Z,69.29
2019-04-05T18:49:40.969Z,69.42
2019-04-05T18:52:07.926Z,69.38
2019-04-05T18:54:35.363Z,69.74
2019-04-05T18:57:02.584Z,69.88
2019-04-05T18:59:29.802Z,70.82
2019-04-05T19:01:56.702Z,71.16
2019-04-05T19:04:24.098Z,71.28
2019-04-05T19:06:53.225Z,70.97
2019-04-05T19:09:20.582Z,70.80
2019-04-05T19:11:47.590Z,70.84
2019-04-05T19:14:14.658Z,71.05
2019-04-05T19:16:48.013Z,71.03
2019-04-05T19:19:17.814Z,71.19
2019-04-05T19:21:44.066Z,71.45
2019-04-05T19:24:10.936Z,71.47
2019-04-05T19:26:38.043Z,71.86
2019-04-05T19:29:05.376Z,72.41
2019-04-05T19:48:55.848Z,72.50
2019-04-05T19:51:23.030Z,72.43
2019-04-05T19:54:00.686Z,72.23
2019-04-05T19:56:19.686Z,71.99
2019-04-05T19:58:46.726Z,71.95
2019-04-05T20:01:14.758Z,71.80
2019-04-05T20:03:42.110Z,72.00
2019-04-05T20:06:09.348Z,72.07
2019-04-05T20:08:36.577Z,72.07
2019-04-05T20:11:03.672Z,72.13
2019-04-05T20:13:30.735Z,72.34
2019-04-05T20:15:58.933Z,72.56
2019-04-05T20:18:25.779Z,72.57
2019-04-05T20:20:53.925Z,72.70
2019-04-05T20:23:21.845Z,73.09
2019-04-05T20:25:48.812Z,73.33
2019-04-05T20:28:15.934Z,73.40
2019-04-05T20:30:43.224Z,73.20
2019-04-05T20:33:10.052Z,73.57
2019-04-05T20:35:37.144Z,73.40
2019-04-05T20:38:04.336Z,74.08
2019-04-05T20:40:31.358Z,74.37
2019-04-05T20:42:59.921Z,74.45
2019-04-05T20:45:27.507Z,74.19
2019-04-05T20:47:54.353Z,74.20
2019-04-05T20:50:21.344Z,74.55
2019-04-05T20:52:49.159Z,74.76
2019-04-05T20:55:16.593Z,74.85
2019-04-05T20:57:43.548Z,74.79
2019-04-05T21:00:12.445Z,74.64
2019-04-05T21:02:39.485Z,74.55
2019-04-05T21:05:07.081Z,74.39
2019-04-05T21:07:33.984Z,74.70
2019-04-05T21:10:01.004Z,74.56
2019-04-05T21:12:28.051Z,74.61
2019-04-05T21:14:55.131Z,74.81
2019-04-05T21:17:22.352Z,74.48
2019-04-05T21:19:49.160Z,74.80
2019-04-05T21:22:16.563Z,74.76
2019-04-05T21:24:43.871Z,74.74
2019-04-05T21:27:12.601Z,75.11
2019-04-05T21:29:39.738Z,75.05
2019-04-05T21:32:07.088Z,75.13
2019-04-05T21:34:34.618Z,75.11
2019-04-05T21:37:01.449Z,74.86
2019-04-05T21:39:28.237Z,74.86
2019-04-05T21:41:55.266Z,75.20
2019-04-05T21:44:22.053Z,75.46
2019-04-05T21:46:49.056Z,75.58
2019-04-05T21:49:16.236Z,75.53
2019-04-05T21:51:45.055Z,75.59
2019-04-05T21:54:11.924Z,75.63
2019-04-05T21:56:41.610Z,75.49
2019-04-05T21:59:08.440Z,75.62
2019-04-05T22:01:35.438Z,75.70
2019-04-05T22:04:02.576Z,76.01
2019-04-05T22:06:29.847Z,76.42
2019-04-05T22:08:57.004Z,76.49
2019-04-05T22:11:24.054Z,76.29
2019-04-05T22:13:50.975Z,76.23
2019-04-05T22:16:17.865Z,76.20
2019-04-05T22:18:44.618Z,76.41
2019-04-05T22:21:11.712Z,76.51
2019-04-05T22:23:38.969Z,76.45
2019-04-05T22:26:06.062Z,76.57
2019-04-05T22:28:33.128Z,77.04
2019-04-05T22:31:00.192Z,77.08
2019-04-05T22:33:27.231Z,77.17
2019-04-05T22:35:54.076Z,77.12
2019-04-05T22:38:20.959Z,77.37
2019-04-05T22:40:47.947Z,77.50
2019-04-05T22:43:14.910Z,76.79
2019-04-05T22:45:41.984Z,76.75
2019-04-05T22:48:09.123Z,76.62
2019-04-05T22:50:36.090Z,76.38
2019-04-05T22:53:04.867Z,76.75
2019-04-05T22:55:32.962Z,77.28
2019-04-05T22:58:00.899Z,77.73
2019-04-05T23:00:28.637Z,77.49
2019-04-05T23:02:55.641Z,77.38
2019-04-05T23:05:22.567Z,77.37
2019-04-05T23:07:49.386Z,77.66
2019-04-05T23:10:16.629Z,77.64
2019-04-05T23:12:44.317Z,77.79
2019-04-05T23:15:11.806Z,77.74
2019-04-05T23:17:38.695Z,77.70
2019-04-05T23:20:07.482Z,78.13
2019-04-05T23:22:34.771Z,78.38
2019-04-05T23:25:02.608Z,78.23
2019-04-05T23:27:30.222Z,77.96
2019-04-05T23:29:57.378Z,77.37
2019-04-05T23:32:24.408Z,77.55
2019-04-05T23:34:51.234Z,77.63
2019-04-05T23:37:18.120Z,78.24
2019-04-05T23:39:45.181Z,78.50
2019-04-05T23:42:12.000Z,78.29
2019-04-05T23:44:39.274Z,78.16
2019-04-05T23:47:06.361Z,77.92
2019-04-05T23:49:33.610Z,77.88
2019-04-05T23:52:01.023Z,78.38
2019-04-05T23:54:28.487Z,78.60
2019-04-05T23:56:55.372Z,78.38
2019-04-05T23:59:22.438Z,78.18
